sensor_id;sensor_type;location;lat;lon;timestamp;P1;durP1;ratioP1;P2;durP2;ratioP2
41685;SDS011;27370;42.764;23.432;2023-03-01T00:01:03;5.75;;;2.60;;
41685;SDS011;27370;42.764;23.432;2023-03-01T00:03:30;5.90;;;2.95;;
41685;SDS011;27370;42.764;23.432;2023-03-01T00:05:55;5.75;;;2.72;;
41685;SDS011;27370;42.764;23.432;2023-03-01T00:08:21;5.30;;;2.50;;
41685;SDS011;27370;42.764;23.432;2023-03-01T00:10:46;4.53;;;2.40;;
41685;SDS011;27370;42.764;23.432;2023-03-01T00:13:12;4.00;;;2.15;;
41685;SDS011;27370;42.764;23.432;2023-03-01T00:15:38;4.65;;;2.35;;
41685;SDS011;27370;42.764;23.432;2023-03-01T00:18:05;4.05;;;2.30;;
41685;SDS011;27370;42.764;23.432;2023-03-01T00:20:31;3.75;;;2.30;;
41685;SDS011;27370;42.764;23.432;2023-03-01T00:22:57;4.72;;;2.45;;
41685;SDS011;27370;42.764;23.432;2023-03-01T00:25:22;5.70;;;2.80;;
41685;SDS011;27370;42.764;23.432;2023-03-01T00:27:47;6.18;;;2.90;;
41685;SDS011;27370;42.764;23.432;2023-03-01T00:30:14;6.43;;;3.25;;
41685;SDS011;27370;42.764;23.432;2023-03-01T00:32:39;6.28;;;2.63;;
41685;SDS011;27370;42.764;23.432;2023-03-01T00:35:05;6.38;;;3.10;;
41685;SDS011;27370;42.764;23.432;2023-03-01T00:37:31;5.68;;;2.95;;
41685;SDS011;27370;42.764;23.432;2023-03-01T00:39:56;6.85;;;3.13;;
41685;SDS011;27370;42.764;23.432;2023-03-01T00:42:23;5.78;;;2.92;;
41685;SDS011;27370;42.764;23.432;2023-03-01T00:44:48;5.90;;;2.95;;
41685;SDS011;27370;42.764;23.432;2023-03-01T00:47:14;6.35;;;3.08;;
41685;SDS011;27370;42.764;23.432;2023-03-01T00:49:39;6.95;;;3.40;;
41685;SDS011;27370;42.764;23.432;2023-03-01T00:52:05;6.95;;;3.10;;
41685;SDS011;27370;42.764;23.432;2023-03-01T00:54:31;4.78;;;2.50;;
41685;SDS011;27370;42.764;23.432;2023-03-01T00:56:56;4.25;;;2.10;;
41685;SDS011;27370;42.764;23.432;2023-03-01T00:59:22;4.45;;;2.40;;
41685;SDS011;27370;42.764;23.432;2023-03-01T01:01:47;4.13;;;2.13;;
41685;SDS011;27370;42.764;23.432;2023-03-01T01:04:13;3.35;;;1.85;;
41685;SDS011;27370;42.764;23.432;2023-03-01T01:06:40;4.30;;;2.28;;
41685;SDS011;27370;42.764;23.432;2023-03-01T01:09:11;3.40;;;1.92;;
41685;SDS011;27370;42.764;23.432;2023-03-01T01:11:46;4.13;;;2.10;;
41685;SDS011;27370;42.764;23.432;2023-03-01T01:14:13;3.10;;;1.70;;
41685;SDS011;27370;42.764;23.432;2023-03-01T01:16:38;3.97;;;1.75;;
41685;SDS011;27370;42.764;23.432;2023-03-01T01:19:04;2.58;;;1.70;;
41685;SDS011;27370;42.764;23.432;2023-03-01T01:21:30;3.33;;;2.08;;
41685;SDS011;27370;42.764;23.432;2023-03-01T01:23:56;2.55;;;1.80;;
41685;SDS011;27370;42.764;23.432;2023-03-01T01:26:23;3.88;;;2.08;;
41685;SDS011;27370;42.764;23.432;2023-03-01T01:28:51;3.75;;;2.08;;
41685;SDS011;27370;42.764;23.432;2023-03-01T01:31:17;4.22;;;2.25;;
41685;SDS011;27370;42.764;23.432;2023-03-01T01:33:43;5.18;;;2.35;;
41685;SDS011;27370;42.764;23.432;2023-03-01T01:36:09;4.07;;;2.40;;
41685;SDS011;27370;42.764;23.432;2023-03-01T01:38:36;3.40;;;2.20;;
41685;SDS011;27370;42.764;23.432;2023-03-01T01:41:02;2.85;;;1.65;;
41685;SDS011;27370;42.764;23.432;2023-03-01T01:43:29;4.00;;;2.20;;
41685;SDS011;27370;42.764;23.432;2023-03-01T01:45:59;2.72;;;1.85;;
41685;SDS011;27370;42.764;23.432;2023-03-01T01:48:32;3.67;;;2.17;;
41685;SDS011;27370;42.764;23.432;2023-03-01T01:51:05;4.32;;;2.10;;
41685;SDS011;27370;42.764;23.432;2023-03-01T01:53:37;4.78;;;2.20;;
41685;SDS011;27370;42.764;23.432;2023-03-01T01:56:05;3.78;;;2.00;;
41685;SDS011;27370;42.764;23.432;2023-03-01T01:58:33;5.20;;;2.38;;
41685;SDS011;27370;42.764;23.432;2023-03-01T02:00:58;4.50;;;2.30;;
41685;SDS011;27370;42.764;23.432;2023-03-01T02:03:27;5.60;;;2.42;;
41685;SDS011;27370;42.764;23.432;2023-03-01T02:08:30;5.20;;;2.40;;
41685;SDS011;27370;42.764;23.432;2023-03-01T02:10:58;3.83;;;2.30;;
41685;SDS011;27370;42.764;23.432;2023-03-01T02:13:25;4.20;;;2.25;;
41685;SDS011;27370;42.764;23.432;2023-03-01T02:15:53;5.10;;;2.30;;
41685;SDS011;27370;42.764;23.432;2023-03-01T02:18:20;5.57;;;2.55;;
41685;SDS011;27370;42.764;23.432;2023-03-01T02:23:33;5.07;;;2.47;;
41685;SDS011;27370;42.764;23.432;2023-03-01T02:28:35;2.65;;;1.60;;
41685;SDS011;27370;42.764;23.432;2023-03-01T02:31:05;3.22;;;1.40;;
41685;SDS011;27370;42.764;23.432;2023-03-01T02:33:52;1.88;;;1.10;;
41685;SDS011;27370;42.764;23.432;2023-03-01T02:36:20;2.28;;;1.20;;
41685;SDS011;27370;42.764;23.432;2023-03-01T02:38:49;0.82;;;0.80;;
41685;SDS011;27370;42.764;23.432;2023-03-01T02:41:19;2.00;;;0.95;;
41685;SDS011;27370;42.764;23.432;2023-03-01T02:43:46;1.98;;;0.90;;
41685;SDS011;27370;42.764;23.432;2023-03-01T02:46:22;0.95;;;0.70;;
41685;SDS011;27370;42.764;23.432;2023-03-01T02:48:50;1.05;;;0.60;;
41685;SDS011;27370;42.764;23.432;2023-03-01T02:51:31;1.17;;;0.85;;
41685;SDS011;27370;42.764;23.432;2023-03-01T02:57:05;1.13;;;0.65;;
41685;SDS011;27370;42.764;23.432;2023-03-01T02:59:33;0.93;;;0.60;;
41685;SDS011;27370;42.764;23.432;2023-03-01T03:02:06;1.02;;;0.80;;
41685;SDS011;27370;42.764;23.432;2023-03-01T03:04:32;1.90;;;1.10;;
41685;SDS011;27370;42.764;23.432;2023-03-01T03:06:58;3.72;;;1.15;;
41685;SDS011;27370;42.764;23.432;2023-03-01T03:09:24;3.40;;;1.40;;
41685;SDS011;27370;42.764;23.432;2023-03-01T03:11:50;3.45;;;1.60;;
41685;SDS011;27370;42.764;23.432;2023-03-01T03:14:16;4.07;;;1.50;;
41685;SDS011;27370;42.764;23.432;2023-03-01T03:16:45;1.80;;;0.75;;
41685;SDS011;27370;42.764;23.432;2023-03-01T03:19:13;1.10;;;0.90;;
41685;SDS011;27370;42.764;23.432;2023-03-01T03:21:39;2.90;;;1.33;;
41685;SDS011;27370;42.764;23.432;2023-03-01T03:24:05;1.45;;;0.75;;
41685;SDS011;27370;42.764;23.432;2023-03-01T03:26:31;0.88;;;0.70;;
41685;SDS011;27370;42.764;23.432;2023-03-01T03:28:56;2.17;;;0.70;;
41685;SDS011;27370;42.764;23.432;2023-03-01T03:31:22;1.10;;;0.45;;
41685;SDS011;27370;42.764;23.432;2023-03-01T03:33:48;0.55;;;0.45;;
41685;SDS011;27370;42.764;23.432;2023-03-01T03:36:17;3.65;;;0.50;;
41685;SDS011;27370;42.764;23.432;2023-03-01T03:38:44;0.70;;;0.70;;
41685;SDS011;27370;42.764;23.432;2023-03-01T03:41:11;0.98;;;0.60;;
41685;SDS011;27370;42.764;23.432;2023-03-01T03:43:37;0.95;;;0.60;;
41685;SDS011;27370;42.764;23.432;2023-03-01T03:46:05;1.45;;;0.65;;
41685;SDS011;27370;42.764;23.432;2023-03-01T03:48:35;0.60;;;0.50;;
41685;SDS011;27370;42.764;23.432;2023-03-01T03:51:03;1.27;;;0.63;;
41685;SDS011;27370;42.764;23.432;2023-03-01T03:53:31;0.68;;;0.52;;
41685;SDS011;27370;42.764;23.432;2023-03-01T03:55:56;0.80;;;0.50;;
41685;SDS011;27370;42.764;23.432;2023-03-01T03:58:41;1.52;;;0.50;;
41685;SDS011;27370;42.764;23.432;2023-03-01T04:01:25;0.55;;;0.38;;
41685;SDS011;27370;42.764;23.432;2023-03-01T04:03:50;0.65;;;0.55;;
41685;SDS011;27370;42.764;23.432;2023-03-01T04:06:19;0.70;;;0.50;;
41685;SDS011;27370;42.764;23.432;2023-03-01T04:08:45;1.35;;;0.60;;
41685;SDS011;27370;42.764;23.432;2023-03-01T04:11:10;0.57;;;0.45;;
41685;SDS011;27370;42.764;23.432;2023-03-01T04:13:52;0.57;;;0.43;;
41685;SDS011;27370;42.764;23.432;2023-03-01T04:16:20;0.50;;;0.50;;
41685;SDS011;27370;42.764;23.432;2023-03-01T04:18:45;3.33;;;1.30;;
41685;SDS011;27370;42.764;23.432;2023-03-01T04:21:11;2.85;;;1.50;;
41685;SDS011;27370;42.764;23.432;2023-03-01T04:23:36;1.95;;;0.95;;
41685;SDS011;27370;42.764;23.432;2023-03-01T04:26:03;4.18;;;1.40;;
41685;SDS011;27370;42.764;23.432;2023-03-01T04:28:33;1.27;;;0.73;;
41685;SDS011;27370;42.764;23.432;2023-03-01T04:31:04;3.92;;;1.30;;
41685;SDS011;27370;42.764;23.432;2023-03-01T04:33:49;3.10;;;1.40;;
41685;SDS011;27370;42.764;23.432;2023-03-01T04:36:17;3.78;;;1.20;;
41685;SDS011;27370;42.764;23.432;2023-03-01T04:38:44;1.65;;;0.82;;
41685;SDS011;27370;42.764;23.432;2023-03-01T04:41:12;1.43;;;0.67;;
41685;SDS011;27370;42.764;23.432;2023-03-01T04:43:39;1.20;;;0.60;;
41685;SDS011;27370;42.764;23.432;2023-03-01T04:46:09;0.52;;;0.50;;
41685;SDS011;27370;42.764;23.432;2023-03-01T04:48:38;0.70;;;0.70;;
41685;SDS011;27370;42.764;23.432;2023-03-01T04:51:05;0.88;;;0.50;;
41685;SDS011;27370;42.764;23.432;2023-03-01T04:53:31;0.85;;;0.50;;
41685;SDS011;27370;42.764;23.432;2023-03-01T04:55:57;0.50;;;0.45;;
41685;SDS011;27370;42.764;23.432;2023-03-01T04:58:24;2.92;;;0.70;;
41685;SDS011;27370;42.764;23.432;2023-03-01T05:00:53;0.52;;;0.52;;
41685;SDS011;27370;42.764;23.432;2023-03-01T05:03:19;0.55;;;0.50;;
41685;SDS011;27370;42.764;23.432;2023-03-01T05:05:46;1.02;;;0.70;;
41685;SDS011;27370;42.764;23.432;2023-03-01T05:08:13;0.82;;;0.80;;
41685;SDS011;27370;42.764;23.432;2023-03-01T05:10:43;2.47;;;1.25;;
41685;SDS011;27370;42.764;23.432;2023-03-01T05:13:11;1.20;;;0.90;;
41685;SDS011;27370;42.764;23.432;2023-03-01T05:15:38;0.50;;;0.50;;
41685;SDS011;27370;42.764;23.432;2023-03-01T05:18:04;0.40;;;0.40;;
41685;SDS011;27370;42.764;23.432;2023-03-01T05:20:36;0.65;;;0.55;;
41685;SDS011;27370;42.764;23.432;2023-03-01T05:23:02;0.43;;;0.43;;
41685;SDS011;27370;42.764;23.432;2023-03-01T05:25:30;0.40;;;0.40;;
41685;SDS011;27370;42.764;23.432;2023-03-01T05:28:01;0.65;;;0.50;;
41685;SDS011;27370;42.764;23.432;2023-03-01T05:30:32;1.65;;;0.70;;
41685;SDS011;27370;42.764;23.432;2023-03-01T05:32:59;0.85;;;0.75;;
41685;SDS011;27370;42.764;23.432;2023-03-01T05:35:25;1.55;;;0.63;;
41685;SDS011;27370;42.764;23.432;2023-03-01T05:37:51;2.28;;;0.93;;
41685;SDS011;27370;42.764;23.432;2023-03-01T05:40:18;1.27;;;0.55;;
41685;SDS011;27370;42.764;23.432;2023-03-01T05:42:46;0.40;;;0.40;;
41685;SDS011;27370;42.764;23.432;2023-03-01T05:45:19;2.33;;;0.70;;
41685;SDS011;27370;42.764;23.432;2023-03-01T05:47:47;0.90;;;0.80;;
41685;SDS011;27370;42.764;23.432;2023-03-01T05:50:15;1.10;;;0.70;;
41685;SDS011;27370;42.764;23.432;2023-03-01T05:52:56;1.23;;;0.90;;
41685;SDS011;27370;42.764;23.432;2023-03-01T05:55:31;1.25;;;0.60;;
41685;SDS011;27370;42.764;23.432;2023-03-01T05:58:04;3.13;;;0.93;;
41685;SDS011;27370;42.764;23.432;2023-03-01T06:00:32;0.70;;;0.57;;
41685;SDS011;27370;42.764;23.432;2023-03-01T06:02:59;4.03;;;1.00;;
41685;SDS011;27370;42.764;23.432;2023-03-01T06:05:25;1.45;;;0.82;;
41685;SDS011;27370;42.764;23.432;2023-03-01T06:07:51;2.53;;;1.27;;
41685;SDS011;27370;42.764;23.432;2023-03-01T06:10:18;2.42;;;1.30;;
41685;SDS011;27370;42.764;23.432;2023-03-01T06:12:45;5.85;;;1.17;;
41685;SDS011;27370;42.764;23.432;2023-03-01T06:15:11;3.40;;;1.60;;
41685;SDS011;27370;42.764;23.432;2023-03-01T06:17:39;1.52;;;1.10;;
41685;SDS011;27370;42.764;23.432;2023-03-01T06:20:08;3.92;;;1.10;;
41685;SDS011;27370;42.764;23.432;2023-03-01T06:22:45;1.92;;;1.30;;
41685;SDS011;27370;42.764;23.432;2023-03-01T06:25:12;4.38;;;1.40;;
41685;SDS011;27370;42.764;23.432;2023-03-01T06:27:40;4.67;;;1.97;;
41685;SDS011;27370;42.764;23.432;2023-03-01T06:30:07;3.10;;;1.38;;
41685;SDS011;27370;42.764;23.432;2023-03-01T06:32:35;3.00;;;1.60;;
41685;SDS011;27370;42.764;23.432;2023-03-01T06:35:00;3.45;;;1.70;;
41685;SDS011;27370;42.764;23.432;2023-03-01T06:37:26;5.00;;;2.30;;
41685;SDS011;27370;42.764;23.432;2023-03-01T06:39:51;5.50;;;2.13;;
41685;SDS011;27370;42.764;23.432;2023-03-01T06:42:17;4.85;;;1.80;;
41685;SDS011;27370;42.764;23.432;2023-03-01T06:44:43;4.90;;;2.10;;
41685;SDS011;27370;42.764;23.432;2023-03-01T06:47:09;3.45;;;1.73;;
41685;SDS011;27370;42.764;23.432;2023-03-01T06:49:34;5.45;;;2.08;;
41685;SDS011;27370;42.764;23.432;2023-03-01T06:52:00;3.53;;;1.80;;
41685;SDS011;27370;42.764;23.432;2023-03-01T06:54:26;4.45;;;1.90;;
41685;SDS011;27370;42.764;23.432;2023-03-01T06:56:51;10.13;;;3.60;;
41685;SDS011;27370;42.764;23.432;2023-03-01T06:59:17;2.88;;;1.77;;
41685;SDS011;27370;42.764;23.432;2023-03-01T07:01:42;5.18;;;1.75;;
41685;SDS011;27370;42.764;23.432;2023-03-01T07:04:09;5.40;;;1.52;;
41685;SDS011;27370;42.764;23.432;2023-03-01T07:06:35;5.00;;;2.03;;
41685;SDS011;27370;42.764;23.432;2023-03-01T07:09:00;2.22;;;1.25;;
41685;SDS011;27370;42.764;23.432;2023-03-01T07:11:26;5.45;;;2.45;;
41685;SDS011;27370;42.764;23.432;2023-03-01T07:13:51;4.00;;;1.60;;
41685;SDS011;27370;42.764;23.432;2023-03-01T07:16:17;3.78;;;1.48;;
41685;SDS011;27370;42.764;23.432;2023-03-01T07:18:43;4.80;;;1.65;;
41685;SDS011;27370;42.764;23.432;2023-03-01T07:21:09;4.22;;;1.40;;
41685;SDS011;27370;42.764;23.432;2023-03-01T07:23:37;3.37;;;1.80;;
41685;SDS011;27370;42.764;23.432;2023-03-01T07:26:02;7.38;;;3.00;;
41685;SDS011;27370;42.764;23.432;2023-03-01T07:28:28;2.85;;;1.58;;
41685;SDS011;27370;42.764;23.432;2023-03-01T07:30:53;3.72;;;1.70;;
41685;SDS011;27370;42.764;23.432;2023-03-01T07:33:19;16.38;;;6.18;;
41685;SDS011;27370;42.764;23.432;2023-03-01T07:35:45;3.95;;;1.75;;
41685;SDS011;27370;42.764;23.432;2023-03-01T07:38:10;2.88;;;1.40;;
41685;SDS011;27370;42.764;23.432;2023-03-01T07:40:36;5.43;;;2.05;;
41685;SDS011;27370;42.764;23.432;2023-03-01T07:43:01;2.55;;;1.40;;
41685;SDS011;27370;42.764;23.432;2023-03-01T07:45:27;4.00;;;1.70;;
41685;SDS011;27370;42.764;23.432;2023-03-01T07:47:54;5.22;;;2.00;;
41685;SDS011;27370;42.764;23.432;2023-03-01T07:50:20;4.18;;;2.22;;
41685;SDS011;27370;42.764;23.432;2023-03-01T07:52:46;3.67;;;1.88;;
41685;SDS011;27370;42.764;23.432;2023-03-01T07:55:12;3.35;;;1.70;;
41685;SDS011;27370;42.764;23.432;2023-03-01T07:57:38;5.38;;;1.63;;
41685;SDS011;27370;42.764;23.432;2023-03-01T08:00:04;3.83;;;1.52;;
41685;SDS011;27370;42.764;23.432;2023-03-01T08:02:37;6.72;;;1.50;;
41685;SDS011;27370;42.764;23.432;2023-03-01T08:05:03;2.10;;;1.20;;
41685;SDS011;27370;42.764;23.432;2023-03-01T08:07:29;3.92;;;1.23;;
41685;SDS011;27370;42.764;23.432;2023-03-01T08:09:55;5.15;;;1.60;;
41685;SDS011;27370;42.764;23.432;2023-03-01T08:12:20;6.32;;;2.60;;
41685;SDS011;27370;42.764;23.432;2023-03-01T08:14:47;5.72;;;2.03;;
41685;SDS011;27370;42.764;23.432;2023-03-01T08:17:15;3.03;;;1.80;;
41685;SDS011;27370;42.764;23.432;2023-03-01T08:19:42;6.50;;;2.47;;
41685;SDS011;27370;42.764;23.432;2023-03-01T08:22:07;6.53;;;2.53;;
41685;SDS011;27370;42.764;23.432;2023-03-01T08:24:33;6.03;;;2.10;;
41685;SDS011;27370;42.764;23.432;2023-03-01T08:26:58;4.32;;;1.90;;
41685;SDS011;27370;42.764;23.432;2023-03-01T08:29:24;5.50;;;2.20;;
41685;SDS011;27370;42.764;23.432;2023-03-01T08:31:50;3.83;;;1.60;;
41685;SDS011;27370;42.764;23.432;2023-03-01T08:34:17;4.40;;;2.28;;
41685;SDS011;27370;42.764;23.432;2023-03-01T08:36:44;3.90;;;1.70;;
41685;SDS011;27370;42.764;23.432;2023-03-01T08:39:13;4.53;;;1.95;;
41685;SDS011;27370;42.764;23.432;2023-03-01T08:41:40;3.87;;;1.90;;
41685;SDS011;27370;42.764;23.432;2023-03-01T08:44:06;6.20;;;2.38;;
41685;SDS011;27370;42.764;23.432;2023-03-01T08:46:33;4.18;;;1.80;;
41685;SDS011;27370;42.764;23.432;2023-03-01T08:49:03;10.55;;;3.78;;
41685;SDS011;27370;42.764;23.432;2023-03-01T08:51:33;4.70;;;1.90;;
41685;SDS011;27370;42.764;23.432;2023-03-01T08:54:20;3.95;;;1.67;;
41685;SDS011;27370;42.764;23.432;2023-03-01T08:56:47;3.45;;;1.50;;
41685;SDS011;27370;42.764;23.432;2023-03-01T08:59:14;6.07;;;2.08;;
41685;SDS011;27370;42.764;23.432;2023-03-01T09:01:43;4.35;;;1.73;;
41685;SDS011;27370;42.764;23.432;2023-03-01T09:04:09;3.42;;;1.75;;
41685;SDS011;27370;42.764;23.432;2023-03-01T09:06:35;4.75;;;2.00;;
41685;SDS011;27370;42.764;23.432;2023-03-01T09:09:01;4.82;;;2.22;;
41685;SDS011;27370;42.764;23.432;2023-03-01T09:11:28;4.75;;;2.17;;
41685;SDS011;27370;42.764;23.432;2023-03-01T09:13:54;4.63;;;2.33;;
41685;SDS011;27370;42.764;23.432;2023-03-01T09:16:21;16.17;;;7.68;;
41685;SDS011;27370;42.764;23.432;2023-03-01T09:18:51;10.52;;;4.97;;
41685;SDS011;27370;42.764;23.432;2023-03-01T09:21:18;4.65;;;2.25;;
41685;SDS011;27370;42.764;23.432;2023-03-01T09:23:47;4.70;;;2.10;;
41685;SDS011;27370;42.764;23.432;2023-03-01T09:26:17;5.28;;;2.55;;
41685;SDS011;27370;42.764;23.432;2023-03-01T09:28:46;6.28;;;2.35;;
41685;SDS011;27370;42.764;23.432;2023-03-01T09:31:12;7.60;;;3.20;;
41685;SDS011;27370;42.764;23.432;2023-03-01T09:33:40;10.93;;;5.80;;
41685;SDS011;27370;42.764;23.432;2023-03-01T09:36:09;8.95;;;4.80;;
41685;SDS011;27370;42.764;23.432;2023-03-01T09:38:36;10.48;;;4.88;;
41685;SDS011;27370;42.764;23.432;2023-03-01T09:41:02;16.38;;;7.30;;
41685;SDS011;27370;42.764;23.432;2023-03-01T09:43:43;11.98;;;4.82;;
41685;SDS011;27370;42.764;23.432;2023-03-01T09:46:13;8.93;;;3.47;;
41685;SDS011;27370;42.764;23.432;2023-03-01T09:48:46;8.20;;;3.50;;
41685;SDS011;27370;42.764;23.432;2023-03-01T09:51:20;3.55;;;2.10;;
41685;SDS011;27370;42.764;23.432;2023-03-01T09:53:51;4.03;;;2.60;;
41685;SDS011;27370;42.764;23.432;2023-03-01T09:56:41;3.90;;;2.15;;
41685;SDS011;27370;42.764;23.432;2023-03-01T09:59:11;3.58;;;2.15;;
41685;SDS011;27370;42.764;23.432;2023-03-01T10:06:47;3.20;;;1.80;;
41685;SDS011;27370;42.764;23.432;2023-03-01T10:09:45;9.98;;;3.55;;
41685;SDS011;27370;42.764;23.432;2023-03-01T10:12:14;15.07;;;4.80;;
41685;SDS011;27370;42.764;23.432;2023-03-01T10:17:34;3.53;;;1.67;;
41685;SDS011;27370;42.764;23.432;2023-03-01T10:22:42;3.72;;;1.73;;
41685;SDS011;27370;42.764;23.432;2023-03-01T10:25:12;4.53;;;1.65;;
41685;SDS011;27370;42.764;23.432;2023-03-01T10:27:49;7.40;;;3.10;;
41685;SDS011;27370;42.764;23.432;2023-03-01T10:30:22;3.28;;;2.00;;
41685;SDS011;27370;42.764;23.432;2023-03-01T10:32:59;10.75;;;4.07;;
41685;SDS011;27370;42.764;23.432;2023-03-01T10:35:29;6.40;;;2.72;;
41685;SDS011;27370;42.764;23.432;2023-03-01T10:38:10;8.10;;;2.88;;
41685;SDS011;27370;42.764;23.432;2023-03-01T10:40:57;15.38;;;6.32;;
41685;SDS011;27370;42.764;23.432;2023-03-01T10:43:27;5.82;;;1.95;;
41685;SDS011;27370;42.764;23.432;2023-03-01T10:46:18;1.83;;;1.10;;
41685;SDS011;27370;42.764;23.432;2023-03-01T10:51:43;3.20;;;1.15;;
41685;SDS011;27370;42.764;23.432;2023-03-01T10:54:32;2.13;;;1.20;;
41685;SDS011;27370;42.764;23.432;2023-03-01T10:56:59;6.03;;;2.13;;
41685;SDS011;27370;42.764;23.432;2023-03-01T10:59:31;5.10;;;1.58;;
41685;SDS011;27370;42.764;23.432;2023-03-01T11:02:17;7.50;;;2.35;;
41685;SDS011;27370;42.764;23.432;2023-03-01T11:07:27;8.30;;;3.42;;
41685;SDS011;27370;42.764;23.432;2023-03-01T11:09:54;3.30;;;1.63;;
41685;SDS011;27370;42.764;23.432;2023-03-01T11:12:20;6.97;;;2.50;;
41685;SDS011;27370;42.764;23.432;2023-03-01T11:14:54;5.20;;;1.90;;
41685;SDS011;27370;42.764;23.432;2023-03-01T11:17:25;2.80;;;1.40;;
41685;SDS011;27370;42.764;23.432;2023-03-01T11:20:00;4.45;;;1.80;;
41685;SDS011;27370;42.764;23.432;2023-03-01T11:22:43;3.17;;;1.45;;
41685;SDS011;27370;42.764;23.432;2023-03-01T11:25:12;2.25;;;1.10;;
41685;SDS011;27370;42.764;23.432;2023-03-01T11:27:40;13.23;;;4.97;;
41685;SDS011;27370;42.764;23.432;2023-03-01T11:35:25;4.57;;;2.10;;
41685;SDS011;27370;42.764;23.432;2023-03-01T11:38:11;4.22;;;1.92;;
41685;SDS011;27370;42.764;23.432;2023-03-01T11:40:49;3.58;;;1.63;;
41685;SDS011;27370;42.764;23.432;2023-03-01T11:43:35;2.00;;;0.98;;
41685;SDS011;27370;42.764;23.432;2023-03-01T11:46:07;1.20;;;0.90;;
41685;SDS011;27370;42.764;23.432;2023-03-01T11:48:56;3.42;;;0.80;;
41685;SDS011;27370;42.764;23.432;2023-03-01T11:56:48;3.47;;;1.48;;
41685;SDS011;27370;42.764;23.432;2023-03-01T12:18:59;5.68;;;2.17;;
41685;SDS011;27370;42.764;23.432;2023-03-01T12:24:27;4.57;;;1.42;;
41685;SDS011;27370;42.764;23.432;2023-03-01T12:41:51;3.42;;;1.70;;
41685;SDS011;27370;42.764;23.432;2023-03-01T12:44:49;6.93;;;2.25;;
41685;SDS011;27370;42.764;23.432;2023-03-01T12:50:03;9.65;;;3.47;;
41685;SDS011;27370;42.764;23.432;2023-03-01T12:55:14;7.10;;;3.30;;
41685;SDS011;27370;42.764;23.432;2023-03-01T12:58:00;4.97;;;2.40;;
41685;SDS011;27370;42.764;23.432;2023-03-01T13:06:18;2.95;;;1.42;;
41685;SDS011;27370;42.764;23.432;2023-03-01T13:11:31;4.00;;;1.73;;
41685;SDS011;27370;42.764;23.432;2023-03-01T13:14:43;5.70;;;2.10;;
41685;SDS011;27370;42.764;23.432;2023-03-01T13:16:49;8.32;;;1.73;;
41685;SDS011;27370;42.764;23.432;2023-03-01T13:19:22;3.60;;;1.58;;
41685;SDS011;27370;42.764;23.432;2023-03-01T13:21:54;4.93;;;1.88;;
41685;SDS011;27370;42.764;23.432;2023-03-01T13:25:02;4.18;;;1.92;;
41685;SDS011;27370;42.764;23.432;2023-03-01T13:29:47;3.03;;;1.33;;
41685;SDS011;27370;42.764;23.432;2023-03-01T13:32:25;4.38;;;1.90;;
41685;SDS011;27370;42.764;23.432;2023-03-01T13:35:03;2.65;;;1.48;;
41685;SDS011;27370;42.764;23.432;2023-03-01T13:37:45;3.53;;;1.50;;
41685;SDS011;27370;42.764;23.432;2023-03-01T13:50:57;3.45;;;1.55;;
41685;SDS011;27370;42.764;23.432;2023-03-01T13:53:26;5.88;;;2.00;;
41685;SDS011;27370;42.764;23.432;2023-03-01T13:56:18;3.92;;;1.80;;
41685;SDS011;27370;42.764;23.432;2023-03-01T13:58:52;5.18;;;1.90;;
41685;SDS011;27370;42.764;23.432;2023-03-01T14:01:38;11.02;;;2.88;;
41685;SDS011;27370;42.764;23.432;2023-03-01T14:04:17;6.82;;;2.22;;
41685;SDS011;27370;42.764;23.432;2023-03-01T14:06:46;5.88;;;2.38;;
41685;SDS011;27370;42.764;23.432;2023-03-01T14:14:52;5.75;;;2.50;;
41685;SDS011;27370;42.764;23.432;2023-03-01T14:17:49;4.95;;;1.90;;
41685;SDS011;27370;42.764;23.432;2023-03-01T14:20:24;4.20;;;2.10;;
41685;SDS011;27370;42.764;23.432;2023-03-01T14:22:52;5.40;;;1.80;;
41685;SDS011;27370;42.764;23.432;2023-03-01T14:25:21;9.52;;;4.90;;
41685;SDS011;27370;42.764;23.432;2023-03-01T14:27:55;5.68;;;2.20;;
41685;SDS011;27370;42.764;23.432;2023-03-01T14:30:25;10.13;;;5.65;;
41685;SDS011;27370;42.764;23.432;2023-03-01T14:32:57;21.05;;;16.05;;
41685;SDS011;27370;42.764;23.432;2023-03-01T14:35:28;10.55;;;7.88;;
41685;SDS011;27370;42.764;23.432;2023-03-01T14:37:56;26.57;;;24.07;;
41685;SDS011;27370;42.764;23.432;2023-03-01T14:40:28;8.35;;;5.80;;
41685;SDS011;27370;42.764;23.432;2023-03-01T14:42:57;4.43;;;2.58;;
41685;SDS011;27370;42.764;23.432;2023-03-01T14:45:27;6.68;;;3.53;;
41685;SDS011;27370;42.764;23.432;2023-03-01T14:47:54;5.80;;;2.30;;
41685;SDS011;27370;42.764;23.432;2023-03-01T14:52:59;6.82;;;2.92;;
41685;SDS011;27370;42.764;23.432;2023-03-01T14:55:35;4.93;;;2.00;;
41685;SDS011;27370;42.764;23.432;2023-03-01T14:58:03;7.30;;;2.15;;
41685;SDS011;27370;42.764;23.432;2023-03-01T15:00:31;6.47;;;2.13;;
41685;SDS011;27370;42.764;23.432;2023-03-01T15:03:00;12.32;;;4.88;;
41685;SDS011;27370;42.764;23.432;2023-03-01T15:05:34;11.80;;;4.43;;
41685;SDS011;27370;42.764;23.432;2023-03-01T15:08:01;17.90;;;7.68;;
41685;SDS011;27370;42.764;23.432;2023-03-01T15:10:32;24.08;;;12.68;;
41685;SDS011;27370;42.764;23.432;2023-03-01T15:13:10;17.42;;;9.52;;
41685;SDS011;27370;42.764;23.432;2023-03-01T15:15:45;14.85;;;7.20;;
41685;SDS011;27370;42.764;23.432;2023-03-01T15:18:14;12.82;;;6.40;;
41685;SDS011;27370;42.764;23.432;2023-03-01T15:20:44;11.50;;;5.80;;
41685;SDS011;27370;42.764;23.432;2023-03-01T15:23:20;5.88;;;2.15;;
41685;SDS011;27370;42.764;23.432;2023-03-01T15:25:50;5.65;;;2.38;;
41685;SDS011;27370;42.764;23.432;2023-03-01T15:28:25;11.50;;;4.57;;
41685;SDS011;27370;42.764;23.432;2023-03-01T15:31:36;10.27;;;5.07;;
41685;SDS011;27370;42.764;23.432;2023-03-01T15:33:48;8.50;;;3.63;;
41685;SDS011;27370;42.764;23.432;2023-03-01T15:39:25;5.25;;;2.45;;
41685;SDS011;27370;42.764;23.432;2023-03-01T15:41:56;7.13;;;2.88;;
41685;SDS011;27370;42.764;23.432;2023-03-01T15:44:26;13.07;;;6.80;;
41685;SDS011;27370;42.764;23.432;2023-03-01T15:46:57;9.25;;;4.30;;
41685;SDS011;27370;42.764;23.432;2023-03-01T15:51:54;7.43;;;2.42;;
41685;SDS011;27370;42.764;23.432;2023-03-01T15:54:21;8.35;;;3.65;;
41685;SDS011;27370;42.764;23.432;2023-03-01T15:56:50;19.38;;;10.90;;
41685;SDS011;27370;42.764;23.432;2023-03-01T15:59:16;11.23;;;4.97;;
41685;SDS011;27370;42.764;23.432;2023-03-01T16:01:43;7.68;;;2.70;;
41685;SDS011;27370;42.764;23.432;2023-03-01T16:04:12;8.50;;;3.20;;
41685;SDS011;27370;42.764;23.432;2023-03-01T16:06:49;10.20;;;4.82;;
41685;SDS011;27370;42.764;23.432;2023-03-01T16:09:23;17.33;;;8.57;;
41685;SDS011;27370;42.764;23.432;2023-03-01T16:11:50;11.93;;;4.72;;
41685;SDS011;27370;42.764;23.432;2023-03-01T16:14:17;15.50;;;7.25;;
41685;SDS011;27370;42.764;23.432;2023-03-01T16:16:43;13.68;;;6.35;;
41685;SDS011;27370;42.764;23.432;2023-03-01T16:19:09;19.48;;;8.32;;
41685;SDS011;27370;42.764;23.432;2023-03-01T16:21:35;36.38;;;17.40;;
41685;SDS011;27370;42.764;23.432;2023-03-01T16:24:01;37.15;;;18.70;;
41685;SDS011;27370;42.764;23.432;2023-03-01T16:26:28;13.88;;;6.25;;
41685;SDS011;27370;42.764;23.432;2023-03-01T16:28:54;13.20;;;7.47;;
41685;SDS011;27370;42.764;23.432;2023-03-01T16:31:21;20.50;;;9.75;;
41685;SDS011;27370;42.764;23.432;2023-03-01T16:33:48;19.40;;;7.72;;
41685;SDS011;27370;42.764;23.432;2023-03-01T16:36:17;27.52;;;12.65;;
41685;SDS011;27370;42.764;23.432;2023-03-01T16:38:44;43.78;;;19.92;;
41685;SDS011;27370;42.764;23.432;2023-03-01T16:41:15;24.25;;;10.30;;
41685;SDS011;27370;42.764;23.432;2023-03-01T16:43:42;12.25;;;4.65;;